sensor_id;sensor_type;location;lat;lon;timestamp;pressure;altitude;pressure_sealevel;temperature;humidity
21956;BME280;11142;49.930;8.606;2023-07-16T00:02:18;99728.00;;;20.88;100.00
21956;BME280;11142;49.930;8.606;2023-07-16T00:04:47;99730.78;;;20.94;100.00
21956;BME280;11142;49.930;8.606;2023-07-16T00:07:16;99720.06;;;20.96;100.00
21956;BME280;11142;49.930;8.606;2023-07-16T00:09:44;99730.00;;;20.86;100.00
21956;BME280;11142;49.930;8.606;2023-07-16T00:12:14;99747.78;;;20.84;100.00
21956;BME280;11142;49.930;8.606;2023-07-16T00:14:43;99782.94;;;20.76;100.00
21956;BME280;11142;49.930;8.606;2023-07-16T00:17:11;99764.03;;;20.56;100.00
21956;BME280;11142;49.930;8.606;2023-07-16T00:19:38;99766.19;;;20.53;100.00
21956;BME280;11142;49.930;8.606;2023-07-16T00:22:06;99758.66;;;20.42;100.00
21956;BME280;11142;49.930;8.606;2023-07-16T00:24:35;99760.13;;;20.44;100.00
21956;BME280;11142;49.930;8.606;2023-07-16T00:27:03;99767.69;;;20.47;100.00
21956;BME280;11142;49.930;8.606;2023-07-16T00:29:33;99758.31;;;20.37;100.00
21956;BME280;11142;49.930;8.606;2023-07-16T00:32:03;99756.50;;;20.37;100.00
21956;BME280;11142;49.930;8.606;2023-07-16T00:34:31;99756.50;;;20.21;100.00
21956;BME280;11142;49.930;8.606;2023-07-16T00:37:00;99768.50;;;20.24;100.00
21956;BME280;11142;49.930;8.606;2023-07-16T00:39:30;99767.88;;;20.22;100.00
21956;BME280;11142;49.930;8.606;2023-07-16T00:41:58;99784.84;;;20.19;100.00
21956;BME280;11142;49.930;8.606;2023-07-16T00:44:26;99801.63;;;20.02;100.00
21956;BME280;11142;49.930;8.606;2023-07-16T00:46:55;99790.94;;;19.87;100.00
21956;BME280;11142;49.930;8.606;2023-07-16T00:49:24;99787.16;;;19.82;100.00
21956;BME280;11142;49.930;8.606;2023-07-16T00:51:53;99769.53;;;19.74;100.00
21956;BME280;11142;49.930;8.606;2023-07-16T00:54:22;99766.09;;;19.82;100.00
21956;BME280;11142;49.930;8.606;2023-07-16T00:56:50;99736.28;;;19.89;100.00
21956;BME280;11142;49.930;8.606;2023-07-16T00:59:18;99735.97;;;19.84;100.00
21956;BME280;11142;49.930;8.606;2023-07-16T01:01:46;99755.88;;;19.79;100.00
21956;BME280;11142;49.930;8.606;2023-07-16T01:04:17;99771.50;;;19.72;100.00
21956;BME280;11142;49.930;8.606;2023-07-16T01:06:46;99759.66;;;19.68;100.00
21956;BME280;11142;49.930;8.606;2023-07-16T01:09:18;99757.34;;;19.65;100.00
21956;BME280;11142;49.930;8.606;2023-07-16T01:11:48;99751.75;;;19.76;100.00
21956;BME280;11142;49.930;8.606;2023-07-16T01:14:17;99783.50;;;19.67;100.00
21956;BME280;11142;49.930;8.606;2023-07-16T01:16:48;99781.19;;;19.55;100.00
21956;BME280;11142;49.930;8.606;2023-07-16T01:19:19;99786.09;;;19.50;100.00
21956;BME280;11142;49.930;8.606;2023-07-16T01:21:50;99788.19;;;19.31;100.00
21956;BME280;11142;49.930;8.606;2023-07-16T01:24:38;99786.78;;;19.19;100.00
21956;BME280;11142;49.930;8.606;2023-07-16T01:27:24;99785.50;;;19.15;100.00
21956;BME280;11142;49.930;8.606;2023-07-16T01:29:58;99798.59;;;19.06;100.00
21956;BME280;11142;49.930;8.606;2023-07-16T01:32:29;99798.25;;;19.01;100.00
21956;BME280;11142;49.930;8.606;2023-07-16T01:35:00;99804.59;;;18.91;100.00
21956;BME280;11142;49.930;8.606;2023-07-16T01:37:29;99796.53;;;18.84;100.00
21956;BME280;11142;49.930;8.606;2023-07-16T01:39:58;99804.91;;;18.80;100.00
21956;BME280;11142;49.930;8.606;2023-07-16T01:42:26;99812.28;;;18.76;100.00
21956;BME280;11142;49.930;8.606;2023-07-16T01:44:54;99833.63;;;18.73;100.00
21956;BME280;11142;49.930;8.606;2023-07-16T01:47:27;99829.97;;;18.74;100.00
21956;BME280;11142;49.930;8.606;2023-07-16T01:49:58;99842.03;;;18.77;100.00
21956;BME280;11142;49.930;8.606;2023-07-16T01:52:26;99852.22;;;18.80;100.00
21956;BME280;11142;49.930;8.606;2023-07-16T01:54:55;99844.69;;;18.85;100.00
21956;BME280;11142;49.930;8.606;2023-07-16T01:57:23;99839.75;;;18.82;100.00
21956;BME280;11142;49.930;8.606;2023-07-16T01:59:51;99847.47;;;18.83;100.00
21956;BME280;11142;49.930;8.606;2023-07-16T02:02:19;99845.50;;;18.85;100.00
21956;BME280;11142;49.930;8.606;2023-07-16T02:04:48;99865.91;;;18.91;100.00
21956;BME280;11142;49.930;8.606;2023-07-16T02:07:17;99861.69;;;18.98;100.00
21956;BME280;11142;49.930;8.606;2023-07-16T02:09:45;99855.09;;;18.94;100.00
21956;BME280;11142;49.930;8.606;2023-07-16T02:12:16;99861.19;;;18.95;100.00
21956;BME280;11142;49.930;8.606;2023-07-16T02:14:44;99861.19;;;18.95;100.00
21956;BME280;11142;49.930;8.606;2023-07-16T02:17:12;99861.94;;;18.87;100.00
21956;BME280;11142;49.930;8.606;2023-07-16T02:19:40;99859.19;;;18.89;100.00
21956;BME280;11142;49.930;8.606;2023-07-16T02:22:10;99855.41;;;18.91;100.00
21956;BME280;11142;49.930;8.606;2023-07-16T02:24:38;99867.94;;;18.97;100.00
21956;BME280;11142;49.930;8.606;2023-07-16T02:27:06;99864.13;;;18.92;100.00
21956;BME280;11142;49.930;8.606;2023-07-16T02:29:35;99863.91;;;18.85;100.00
21956;BME280;11142;49.930;8.606;2023-07-16T02:32:03;99862.56;;;18.81;100.00
21956;BME280;11142;49.930;8.606;2023-07-16T02:34:32;99872.47;;;18.87;100.00
21956;BME280;11142;49.930;8.606;2023-07-16T02:37:03;99880.22;;;18.89;100.00
21956;BME280;11142;49.930;8.606;2023-07-16T02:39:33;99882.84;;;18.89;100.00
21956;BME280;11142;49.930;8.606;2023-07-16T02:42:01;99867.28;;;18.95;100.00
21956;BME280;11142;49.930;8.606;2023-07-16T02:44:30;99882.63;;;19.08;100.00
21956;BME280;11142;49.930;8.606;2023-07-16T02:46:58;99887.97;;;19.24;100.00
21956;BME280;11142;49.930;8.606;2023-07-16T02:49:26;99886.00;;;19.26;100.00
21956;BME280;11142;49.930;8.606;2023-07-16T02:51:56;99887.16;;;19.24;100.00
21956;BME280;11142;49.930;8.606;2023-07-16T02:54:25;99898.19;;;19.27;100.00
21956;BME280;11142;49.930;8.606;2023-07-16T02:56:54;99895.22;;;19.30;100.00
21956;BME280;11142;49.930;8.606;2023-07-16T02:59:22;99896.19;;;19.21;100.00
21956;BME280;11142;49.930;8.606;2023-07-16T03:01:51;99889.56;;;19.17;100.00
21956;BME280;11142;49.930;8.606;2023-07-16T03:04:21;99891.91;;;18.94;100.00
21956;BME280;11142;49.930;8.606;2023-07-16T03:06:49;99902.28;;;18.96;100.00
21956;BME280;11142;49.930;8.606;2023-07-16T03:09:17;99907.56;;;18.96;100.00
21956;BME280;11142;49.930;8.606;2023-07-16T03:11:45;99900.19;;;18.99;100.00
21956;BME280;11142;49.930;8.606;2023-07-16T03:14:15;99899.59;;;18.88;100.00
21956;BME280;11142;49.930;8.606;2023-07-16T03:16:43;99904.91;;;18.70;100.00
21956;BME280;11142;49.930;8.606;2023-07-16T03:19:11;99914.50;;;18.62;100.00
21956;BME280;11142;49.930;8.606;2023-07-16T03:21:40;99910.56;;;18.58;100.00
21956;BME280;11142;49.930;8.606;2023-07-16T03:24:09;99912.66;;;18.54;100.00
21956;BME280;11142;49.930;8.606;2023-07-16T03:26:44;99921.13;;;18.48;100.00
21956;BME280;11142;49.930;8.606;2023-07-16T03:29:16;99923.06;;;18.46;100.00
21956;BME280;11142;49.930;8.606;2023-07-16T03:31:46;99923.06;;;18.46;100.00
21956;BME280;11142;49.930;8.606;2023-07-16T03:34:18;99930.88;;;18.38;100.00
21956;BME280;11142;49.930;8.606;2023-07-16T03:36:46;99938.00;;;18.28;100.00
21956;BME280;11142;49.930;8.606;2023-07-16T03:39:14;99943.94;;;18.30;100.00
21956;BME280;11142;49.930;8.606;2023-07-16T03:41:42;99944.63;;;18.32;100.00
21956;BME280;11142;49.930;8.606;2023-07-16T03:44:10;99942.66;;;18.34;100.00
21956;BME280;11142;49.930;8.606;2023-07-16T03:46:40;99945.84;;;18.20;100.00
21956;BME280;11142;49.930;8.606;2023-07-16T03:49:09;99957.25;;;18.28;100.00
21956;BME280;11142;49.930;8.606;2023-07-16T03:51:37;99948.22;;;18.31;100.00
21956;BME280;11142;49.930;8.606;2023-07-16T03:54:10;99953.34;;;18.32;100.00
21956;BME280;11142;49.930;8.606;2023-07-16T03:56:42;99955.38;;;18.38;100.00
21956;BME280;11142;49.930;8.606;2023-07-16T03:59:10;99955.91;;;18.42;100.00
21956;BME280;11142;49.930;8.606;2023-07-16T04:01:40;99959.28;;;18.52;100.00
21956;BME280;11142;49.930;8.606;2023-07-16T04:04:09;99955.56;;;18.54;100.00
21956;BME280;11142;49.930;8.606;2023-07-16T04:06:37;99964.16;;;18.65;100.00
21956;BME280;11142;49.930;8.606;2023-07-16T04:09:05;99961.09;;;18.69;100.00
21956;BME280;11142;49.930;8.606;2023-07-16T04:11:35;99970.47;;;18.72;100.00
21956;BME280;11142;49.930;8.606;2023-07-16T04:14:06;99965.81;;;18.83;100.00
21956;BME280;11142;49.930;8.606;2023-07-16T04:16:34;99976.06;;;18.94;100.00
21956;BME280;11142;49.930;8.606;2023-07-16T04:19:04;99984.34;;;18.99;100.00
21956;BME280;11142;49.930;8.606;2023-07-16T04:21:32;99979.47;;;19.13;100.00
21956;BME280;11142;49.930;8.606;2023-07-16T04:24:01;99974.50;;;19.27;100.00
21956;BME280;11142;49.930;8.606;2023-07-16T04:26:29;99986.91;;;19.17;100.00
21956;BME280;11142;49.930;8.606;2023-07-16T04:29:00;99985.16;;;19.26;100.00
21956;BME280;11142;49.930;8.606;2023-07-16T04:31:29;99996.50;;;19.26;100.00
21956;BME280;11142;49.930;8.606;2023-07-16T04:33:57;100003.06;;;19.40;100.00
21956;BME280;11142;49.930;8.606;2023-07-16T04:36:27;100013.47;;;19.49;100.00
21956;BME280;11142;49.930;8.606;2023-07-16T04:38:55;100008.34;;;19.48;100.00
21956;BME280;11142;49.930;8.606;2023-07-16T04:41:23;100019.19;;;19.71;100.00
21956;BME280;11142;49.930;8.606;2023-07-16T04:43:54;100019.38;;;19.77;100.00
21956;BME280;11142;49.930;8.606;2023-07-16T04:46:22;100022.22;;;19.84;100.00
21956;BME280;11142;49.930;8.606;2023-07-16T04:48:50;100027.34;;;19.93;100.00
21956;BME280;11142;49.930;8.606;2023-07-16T04:51:18;100023.09;;;20.00;100.00
21956;BME280;11142;49.930;8.606;2023-07-16T04:53:48;100029.16;;;20.35;100.00
21956;BME280;11142;49.930;8.606;2023-07-16T04:56:16;100034.75;;;20.32;100.00
21956;BME280;11142;49.930;8.606;2023-07-16T04:58:44;100036.78;;;20.62;100.00
21956;BME280;11142;49.930;8.606;2023-07-16T05:01:13;100049.03;;;20.95;100.00
21956;BME280;11142;49.930;8.606;2023-07-16T05:03:42;100050.22;;;21.17;100.00
21956;BME280;11142;49.930;8.606;2023-07-16T05:06:10;100054.97;;;20.89;100.00
21956;BME280;11142;49.930;8.606;2023-07-16T05:08:39;100050.03;;;21.18;100.00
21956;BME280;11142;49.930;8.606;2023-07-16T05:11:11;100056.81;;;21.37;100.00
21956;BME280;11142;49.930;8.606;2023-07-16T05:13:41;100052.97;;;20.91;100.00
21956;BME280;11142;49.930;8.606;2023-07-16T05:16:27;100059.09;;;20.92;100.00
21956;BME280;11142;49.930;8.606;2023-07-16T05:18:56;100071.16;;;21.43;100.00
21956;BME280;11142;49.930;8.606;2023-07-16T05:21:24;100069.50;;;21.42;100.00
21956;BME280;11142;49.930;8.606;2023-07-16T05:23:57;100084.66;;;21.48;100.00
21956;BME280;11142;49.930;8.606;2023-07-16T05:26:27;100080.53;;;21.53;100.00
21956;BME280;11142;49.930;8.606;2023-07-16T05:28:55;100087.41;;;21.79;100.00
21956;BME280;11142;49.930;8.606;2023-07-16T05:31:23;100095.34;;;21.87;100.00
21956;BME280;11142;49.930;8.606;2023-07-16T05:33:56;100093.22;;;21.74;100.00
21956;BME280;11142;49.930;8.606;2023-07-16T05:36:25;100096.00;;;21.72;100.00
21956;BME280;11142;49.930;8.606;2023-07-16T05:38:54;100103.25;;;22.03;100.00
21956;BME280;11142;49.930;8.606;2023-07-16T05:41:22;100107.75;;;21.94;100.00
21956;BME280;11142;49.930;8.606;2023-07-16T05:43:52;100107.25;;;21.91;100.00
21956;BME280;11142;49.930;8.606;2023-07-16T05:46:20;100100.63;;;21.79;100.00
21956;BME280;11142;49.930;8.606;2023-07-16T05:48:49;100105.78;;;21.64;100.00
21956;BME280;11142;49.930;8.606;2023-07-16T05:51:17;100116.28;;;22.12;100.00
21956;BME280;11142;49.930;8.606;2023-07-16T05:53:45;100122.19;;;22.22;100.00
21956;BME280;11142;49.930;8.606;2023-07-16T05:56:13;100119.88;;;22.19;100.00
21956;BME280;11142;49.930;8.606;2023-07-16T05:58:42;100121.78;;;22.42;100.00
21956;BME280;11142;49.930;8.606;2023-07-16T06:01:14;100117.81;;;22.38;100.00
21956;BME280;11142;49.930;8.606;2023-07-16T06:03:42;100122.16;;;22.31;100.00
21956;BME280;11142;49.930;8.606;2023-07-16T06:06:11;100125.50;;;22.55;100.00
21956;BME280;11142;49.930;8.606;2023-07-16T06:08:40;100123.47;;;22.27;100.00
21956;BME280;11142;49.930;8.606;2023-07-16T06:11:08;100123.69;;;22.56;100.00
21956;BME280;11142;49.930;8.606;2023-07-16T06:13:36;100122.31;;;22.68;100.00
21956;BME280;11142;49.930;8.606;2023-07-16T06:16:05;100134.56;;;22.69;100.00
21956;BME280;11142;49.930;8.606;2023-07-16T06:18:37;100132.59;;;22.94;100.00
21956;BME280;11142;49.930;8.606;2023-07-16T06:21:06;100126.31;;;22.95;100.00
21956;BME280;11142;49.930;8.606;2023-07-16T06:23:34;100124.47;;;22.95;100.00
21956;BME280;11142;49.930;8.606;2023-07-16T06:26:03;100120.53;;;22.91;100.00
21956;BME280;11142;49.930;8.606;2023-07-16T06:28:33;100133.47;;;22.86;100.00
21956;BME280;11142;49.930;8.606;2023-07-16T06:31:06;100133.94;;;23.12;100.00
21956;BME280;11142;49.930;8.606;2023-07-16T06:33:34;100138.16;;;23.21;100.00
21956;BME280;11142;49.930;8.606;2023-07-16T06:36:04;100145.88;;;23.31;100.00
21956;BME280;11142;49.930;8.606;2023-07-16T06:38:32;100143.53;;;23.36;100.00
21956;BME280;11142;49.930;8.606;2023-07-16T06:41:01;100139.91;;;23.14;100.00
21956;BME280;11142;49.930;8.606;2023-07-16T06:43:29;100136.44;;;23.14;100.00
21956;BME280;11142;49.930;8.606;2023-07-16T06:45:57;100130.41;;;23.20;100.00
21956;BME280;11142;49.930;8.606;2023-07-16T06:48:25;100138.25;;;23.36;100.00
21956;BME280;11142;49.930;8.606;2023-07-16T06:50:54;100137.28;;;23.74;100.00
21956;BME280;11142;49.930;8.606;2023-07-16T06:53:28;100139.66;;;23.47;100.00
21956;BME280;11142;49.930;8.606;2023-07-16T06:55:56;100137.50;;;23.27;100.00
21956;BME280;11142;49.930;8.606;2023-07-16T06:58:30;100140.94;;;23.51;100.00
21956;BME280;11142;49.930;8.606;2023-07-16T07:01:01;100136.47;;;23.51;100.00
21956;BME280;11142;49.930;8.606;2023-07-16T07:03:32;100144.63;;;23.50;100.00
21956;BME280;11142;49.930;8.606;2023-07-16T07:06:02;100140.13;;;24.02;100.00
21956;BME280;11142;49.930;8.606;2023-07-16T07:08:33;100134.78;;;23.73;100.00
21956;BME280;11142;49.930;8.606;2023-07-16T07:11:03;100132.03;;;24.18;100.00
21956;BME280;11142;49.930;8.606;2023-07-16T07:13:33;100131.19;;;24.18;100.00
21956;BME280;11142;49.930;8.606;2023-07-16T07:16:01;100135.81;;;24.01;100.00
21956;BME280;11142;49.930;8.606;2023-07-16T07:18:30;100143.44;;;23.52;100.00
21956;BME280;11142;49.930;8.606;2023-07-16T07:20:59;100146.63;;;24.00;100.00
21956;BME280;11142;49.930;8.606;2023-07-16T07:23:33;100146.63;;;24.44;98.50
21956;BME280;11142;49.930;8.606;2023-07-16T07:26:07;100147.06;;;24.62;89.87
21956;BME280;11142;49.930;8.606;2023-07-16T07:28:36;100148.53;;;24.50;87.89
21956;BME280;11142;49.930;8.606;2023-07-16T07:31:04;100152.16;;;24.78;82.75
21956;BME280;11142;49.930;8.606;2023-07-16T07:33:34;100154.16;;;25.12;78.41
21956;BME280;11142;49.930;8.606;2023-07-16T07:36:04;100154.38;;;24.60;81.73
21956;BME280;11142;49.930;8.606;2023-07-16T07:38:34;100152.69;;;24.38;83.38
21956;BME280;11142;49.930;8.606;2023-07-16T07:41:04;100161.56;;;24.80;85.08
21956;BME280;11142;49.930;8.606;2023-07-16T07:43:37;100165.41;;;24.78;85.79
21956;BME280;11142;49.930;8.606;2023-07-16T07:46:06;100170.44;;;25.23;86.84
21956;BME280;11142;49.930;8.606;2023-07-16T07:48:35;100166.78;;;25.67;76.22
21956;BME280;11142;49.930;8.606;2023-07-16T07:51:06;100168.78;;;25.44;76.17
21956;BME280;11142;49.930;8.606;2023-07-16T07:53:36;100176.22;;;24.91;79.09
21956;BME280;11142;49.930;8.606;2023-07-16T07:56:04;100178.28;;;25.74;76.71
21956;BME280;11142;49.930;8.606;2023-07-16T07:58:33;100170.34;;;25.53;69.81
21956;BME280;11142;49.930;8.606;2023-07-16T08:01:04;100180.56;;;25.77;72.04
21956;BME280;11142;49.930;8.606;2023-07-16T08:03:32;100167.16;;;25.43;69.16
21956;BME280;11142;49.930;8.606;2023-07-16T08:06:00;100171.94;;;27.45;62.51
21956;BME280;11142;49.930;8.606;2023-07-16T08:08:32;100173.00;;;26.83;60.15
21956;BME280;11142;49.930;8.606;2023-07-16T08:11:02;100178.28;;;27.44;58.55
21956;BME280;11142;49.930;8.606;2023-07-16T08:13:30;100178.91;;;27.92;57.22
21956;BME280;11142;49.930;8.606;2023-07-16T08:16:00;100177.34;;;28.48;53.52
21956;BME280;11142;49.930;8.606;2023-07-16T08:18:28;100164.53;;;28.13;54.67
21956;BME280;11142;49.930;8.606;2023-07-16T08:20:57;100179.72;;;27.47;59.84
21956;BME280;11142;49.930;8.606;2023-07-16T08:23:26;100173.66;;;26.45;58.47
21956;BME280;11142;49.930;8.606;2023-07-16T08:25:57;100178.91;;;26.31;62.67
21956;BME280;11142;49.930;8.606;2023-07-16T08:28:27;100182.91;;;27.03;61.18
21956;BME280;11142;49.930;8.606;2023-07-16T08:30:57;100186.22;;;26.57;61.50
21956;BME280;11142;49.930;8.606;2023-07-16T08:33:26;100184.16;;;25.91;63.40
21956;BME280;11142;49.930;8.606;2023-07-16T08:35:54;100185.41;;;26.22;61.36
21956;BME280;11142;49.930;8.606;2023-07-16T08:38:22;100181.94;;;26.63;57.86
21956;BME280;11142;49.930;8.606;2023-07-16T08:40:53;100173.84;;;26.84;57.34
21956;BME280;11142;49.930;8.606;2023-07-16T08:43:21;100184.69;;;26.82;57.05
21956;BME280;11142;49.930;8.606;2023-07-16T08:45:54;100166.91;;;25.59;60.50
21956;BME280;11142;49.930;8.606;2023-07-16T08:48:23;100181.34;;;24.93;70.13
21956;BME280;11142;49.930;8.606;2023-07-16T08:50:52;100175.66;;;26.08;59.93
21956;BME280;11142;49.930;8.606;2023-07-16T08:53:20;100176.59;;;26.22;58.55
21956;BME280;11142;49.930;8.606;2023-07-16T08:55:48;100174.78;;;26.22;56.32
21956;BME280;11142;49.930;8.606;2023-07-16T08:58:19;100179.09;;;26.02;57.09
21956;BME280;11142;49.930;8.606;2023-07-16T09:00:51;100174.25;;;26.12;53.74
21956;BME280;11142;49.930;8.606;2023-07-16T09:03:21;100185.84;;;25.49;54.53
21956;BME280;11142;49.930;8.606;2023-07-16T09:05:50;100194.47;;;24.65;59.87
21956;BME280;11142;49.930;8.606;2023-07-16T09:08:19;100191.19;;;25.77;58.43
21956;BME280;11142;49.930;8.606;2023-07-16T09:10:53;100193.56;;;26.55;54.64
21956;BME280;11142;49.930;8.606;2023-07-16T09:13:21;100189.09;;;26.21;53.42
21956;BME280;11142;49.930;8.606;2023-07-16T09:15:53;100180.38;;;26.06;53.93
21956;BME280;11142;49.930;8.606;2023-07-16T09:18:26;100185.19;;;25.05;60.30
21956;BME280;11142;49.930;8.606;2023-07-16T09:20:55;100175.72;;;24.66;60.57
21956;BME280;11142;49.930;8.606;2023-07-16T09:23:29;100181.06;;;25.45;58.12
21956;BME280;11142;49.930;8.606;2023-07-16T09:25:58;100185.16;;;25.47;58.10
21956;BME280;11142;49.930;8.606;2023-07-16T09:28:27;100170.13;;;24.61;62.35
21956;BME280;11142;49.930;8.606;2023-07-16T09:30:55;100167.69;;;25.53;57.86
21956;BME280;11142;49.930;8.606;2023-07-16T09:33:26;100169.56;;;25.59;56.61
21956;BME280;11142;49.930;8.606;2023-07-16T09:35:55;100186.69;;;25.77;56.60
21956;BME280;11142;49.930;8.606;2023-07-16T09:38:23;100192.28;;;25.61;56.62
21956;BME280;11142;49.930;8.606;2023-07-16T09:40:52;100185.53;;;26.14;56.51
21956;BME280;11142;49.930;8.606;2023-07-16T09:43:22;100181.09;;;24.88;53.52
21956;BME280;11142;49.930;8.606;2023-07-16T09:45:51;100189.31;;;24.93;56.49
21956;BME280;11142;49.930;8.606;2023-07-16T09:48:21;100190.63;;;24.82;58.23
21956;BME280;11142;49.930;8.606;2023-07-16T09:50:52;100183.00;;;25.51;54.75
21956;BME280;11142;49.930;8.606;2023-07-16T09:53:23;100183.97;;;25.28;54.57
21956;BME280;11142;49.930;8.606;2023-07-16T09:55:55;100184.63;;;23.92;60.53
21956;BME280;11142;49.930;8.606;2023-07-16T09:58:23;100187.69;;;24.92;59.98
21956;BME280;11142;49.930;8.606;2023-07-16T10:00:54;100189.06;;;25.94;53.34
21956;BME280;11142;49.930;8.606;2023-07-16T10:03:25;100187.25;;;26.63;49.79
21956;BME280;11142;49.930;8.606;2023-07-16T10:05:55;100182.88;;;26.96;49.02
21956;BME280;11142;49.930;8.606;2023-07-16T10:08:33;100178.53;;;27.56;48.09
21956;BME280;11142;49.930;8.606;2023-07-16T10:11:02;100182.41;;;27.66;44.00
21956;BME280;11142;49.930;8.606;2023-07-16T10:13:31;100188.97;;;27.83;42.87
21956;BME280;11142;49.930;8.606;2023-07-16T10:16:01;100176.44;;;27.90;43.16
21956;BME280;11142;49.930;8.606;2023-07-16T10:18:30;100191.22;;;27.73;41.63
21956;BME280;11142;49.930;8.606;2023-07-16T10:21:05;100178.28;;;28.03;42.16
21956;BME280;11142;49.930;8.606;2023-07-16T10:23:38;100174.22;;;27.68;41.96
21956;BME280;11142;49.930;8.606;2023-07-16T10:26:10;100185.00;;;27.14;44.04
21956;BME280;11142;49.930;8.606;2023-07-16T10:28:44;100193.66;;;27.81;42.84
21956;BME280;11142;49.930;8.606;2023-07-16T10:31:20;100174.84;;;26.08;45.57
21956;BME280;11142;49.930;8.606;2023-07-16T10:33:59;100170.78;;;26.46;46.68
21956;BME280;11142;49.930;8.606;2023-07-16T10:36:30;100178.91;;;27.66;43.22
21956;BME280;11142;49.930;8.606;2023-07-16T10:39:02;100167.19;;;28.77;38.96
21956;BME280;11142;49.930;8.606;2023-07-16T10:41:31;100171.09;;;28.81;39.38
21956;BME280;11142;49.930;8.606;2023-07-16T10:44:00;100170.09;;;29.13;39.28
21956;BME280;11142;49.930;8.606;2023-07-16T10:46:28;100172.13;;;29.49;37.55
21956;BME280;11142;49.930;8.606;2023-07-16T10:49:03;100173.94;;;29.55;37.16
21956;BME280;11142;49.930;8.606;2023-07-16T10:51:32;100170.97;;;29.38;37.86
21956;BME280;11142;49.930;8.606;2023-07-16T10:54:01;100171.63;;;30.08;37.57
21956;BME280;11142;49.930;8.606;2023-07-16T10:56:34;100158.50;;;28.37;37.20
21956;BME280;11142;49.930;8.606;2023-07-16T10:59:08;100177.97;;;28.57;38.51
21956;BME280;11142;49.930;8.606;2023-07-16T11:01:38;100168.63;;;29.17;37.01
21956;BME280;11142;49.930;8.606;2023-07-16T11:04:10;100176.56;;;29.62;35.69
21956;BME280;11142;49.930;8.606;2023-07-16T11:06:39;100170.78;;;29.65;35.20
21956;BME280;11142;49.930;8.606;2023-07-16T11:09:08;100169.94;;;29.89;35.79
21956;BME280;11142;49.930;8.606;2023-07-16T11:11:36;100182.06;;;30.34;35.96
21956;BME280;11142;49.930;8.606;2023-07-16T11:14:04;100167.97;;;30.39;34.85
21956;BME280;11142;49.930;8.606;2023-07-16T11:16:34;100171.94;;;30.54;34.46
21956;BME280;11142;49.930;8.606;2023-07-16T11:19:04;100167.78;;;30.59;33.77
21956;BME280;11142;49.930;8.606;2023-07-16T11:21:33;100186.63;;;31.00;33.47
21956;BME280;11142;49.930;8.606;2023-07-16T11:24:10;100182.59;;;29.50;37.03
21956;BME280;11142;49.930;8.606;2023-07-16T11:26:49;100160.75;;;31.05;34.12
21956;BME280;11142;49.930;8.606;2023-07-16T11:29:17;100173.72;;;31.08;34.25
21956;BME280;11142;49.930;8.606;2023-07-16T11:31:48;100166.81;;;32.58;31.26
21956;BME280;11142;49.930;8.606;2023-07-16T11:34:19;100173.91;;;33.83;29.51
21956;BME280;11142;49.930;8.606;2023-07-16T11:36:48;100154.03;;;33.55;28.31
21956;BME280;11142;49.930;8.606;2023-07-16T11:39:19;100176.72;;;34.96;26.18
21956;BME280;11142;49.930;8.606;2023-07-16T11:41:53;100187.66;;;36.54;25.33
21956;BME280;11142;49.930;8.606;2023-07-16T11:44:31;100172.69;;;35.89;25.18
21956;BME280;11142;49.930;8.606;2023-07-16T11:47:01;100172.19;;;33.60;27.74
21956;BME280;11142;49.930;8.606;2023-07-16T11:49:29;100174.44;;;33.85;28.60
21956;BME280;11142;49.930;8.606;2023-07-16T11:51:58;100179.97;;;37.08;24.85
21956;BME280;11142;49.930;8.606;2023-07-16T11:54:31;100173.72;;;38.77;22.65
21956;BME280;11142;49.930;8.606;2023-07-16T11:57:01;100168.06;;;37.39;23.78
21956;BME280;11142;49.930;8.606;2023-07-16T11:59:30;100172.41;;;37.40;23.80
21956;BME280;11142;49.930;8.606;2023-07-16T12:01:58;100172.53;;;36.53;24.11
21956;BME280;11142;49.930;8.606;2023-07-16T12:04:29;100173.16;;;35.44;25.36
21956;BME280;11142;49.930;8.606;2023-07-16T12:06:57;100169.72;;;36.38;24.89
21956;BME280;11142;49.930;8.606;2023-07-16T12:09:27;100163.19;;;36.23;24.75
21956;BME280;11142;49.930;8.606;2023-07-16T12:11:57;100148.28;;;37.74;22.92
21956;BME280;11142;49.930;8.606;2023-07-16T12:14:25;100164.06;;;37.47;24.02
21956;BME280;11142;49.930;8.606;2023-07-16T12:16:56;100162.22;;;35.29;25.02
21956;BME280;11142;49.930;8.606;2023-07-16T12:19:27;100158.09;;;32.80;27.74
21956;BME280;11142;49.930;8.606;2023-07-16T12:21:56;100147.47;;;30.81;30.75
21956;BME280;11142;49.930;8.606;2023-07-16T12:24:26;100139.41;;;30.99;31.20
21956;BME280;11142;49.930;8.606;2023-07-16T12:26:54;100135.16;;;33.67;27.00
21956;BME280;11142;49.930;8.606;2023-07-16T12:29:24;100142.31;;;33.28;27.18
21956;BME280;11142;49.930;8.606;2023-07-16T12:31:52;100140.00;;;29.98;32.51
21956;BME280;11142;49.930;8.606;2023-07-16T12:34:22;100143.69;;;29.55;33.25
21956;BME280;11142;49.930;8.606;2023-07-16T12:37:03;100143.78;;;32.91;28.62
21956;BME280;11142;49.930;8.606;2023-07-16T12:39:33;100140.41;;;31.28;30.78
21956;BME280;11142;49.930;8.606;2023-07-16T12:42:03;100136.81;;;30.44;32.08
21956;BME280;11142;49.930;8.606;2023-07-16T12:44:35;100139.34;;;28.97;34.68
21956;BME280;11142;49.930;8.606;2023-07-16T12:47:04;100145.72;;;32.27;29.98
21956;BME280;11142;49.930;8.606;2023-07-16T12:49:35;100155.06;;;35.13;26.03
21956;BME280;11142;49.930;8.606;2023-07-16T12:52:04;100154.09;;;30.48;32.01
21956;BME280;11142;49.930;8.606;2023-07-16T12:54:32;100141.03;;;31.41;30.02
21956;BME280;11142;49.930;8.606;2023-07-16T12:57:01;100131.63;;;30.79;31.61
21956;BME280;11142;49.930;8.606;2023-07-16T12:59:31;100128.56;;;32.28;30.29
21956;BME280;11142;49.930;8.606;2023-07-16T13:02:01;100150.13;;;32.56;29.20